Time;durP1;ratioP1;P1;durP2;ratioP2;P2;SDS_P1;SDS_P2;PMS_P1;PMS_P2;Temp;Humidity;BMP_temperature;BMP_pressure;BME280_temperature;BME280_humidity;BME280_pressure;Samples;Min_cycle;Max_cycle;Signal;HPM_P1;HPM_P2
2022/11/18 00:01:20;;;;;;;15.77;12.15;;;8.10;99.90;;;;;;5032804;28;20041;-59
2022/11/18 00:03:46;;;;;;;19.63;12.68;;;;;;;;;;5033204;28;20468;-61
2022/11/18 00:06:14;;;;;;;19.20;12.30;;;;;;;;;;5032684;28;20045;-60
2022/11/18 00:08:40;;;;;;;17.38;11.63;;;8.10;99.90;;;;;;5037427;28;20072;-60
2022/11/18 00:11:07;;;;;;;17.63;11.63;;;8.00;99.90;;;;;;5031435;28;20095;-61
2022/11/18 00:16:17;;;;;;;12.85;8.25;;;8.10;99.90;;;;;;5052707;28;20049;-61
2022/11/18 00:18:43;;;;;;;18.73;11.00;;;8.10;99.90;;;;;;5042490;28;20046;-59
2022/11/18 00:21:10;;;;;;;19.20;12.07;;;8.10;99.90;;;;;;5049139;28;20033;-61
2022/11/18 00:23:36;;;;;;;18.58;13.55;;;7.90;99.90;;;;;;5052843;28;20041;-60
2022/11/18 00:26:12;;;;;;;19.00;12.82;;;;;;;;;;5038787;28;20064;-60
2022/11/18 00:28:39;;;;;;;19.17;13.68;;;;;;;;;;5044817;28;20038;-60
2022/11/18 00:31:12;;;;;;;20.60;14.23;;;7.80;99.90;;;;;;5032570;28;20407;-64
2022/11/18 00:33:38;;;;;;;23.27;14.90;;;7.90;99.90;;;;;;5052852;28;20033;-60
2022/11/18 00:36:05;;;;;;;20.17;15.05;;;;;;;;;;5039533;28;20052;-61
2022/11/18 00:38:31;;;;;;;21.90;15.68;;;7.90;99.90;;;;;;5050917;28;20120;-59
2022/11/18 00:41:01;;;;;;;23.30;15.68;;;7.80;99.90;;;;;;5041158;28;20121;-59
2022/11/18 00:43:28;;;;;;;27.63;17.08;;;7.90;99.90;;;;;;5049632;28;20495;-61
2022/11/18 00:45:54;;;;;;;27.52;18.00;;;7.70;99.90;;;;;;5052574;28;20065;-60
2022/11/18 00:48:20;;;;;;;23.20;17.17;;;7.80;99.90;;;;;;5050526;28;20048;-59
2022/11/18 00:50:49;;;;;;;30.70;18.42;;;7.80;99.90;;;;;;5032660;28;20049;-59
2022/11/18 00:53:16;;;;;;;31.95;20.67;;;7.70;99.90;;;;;;5032558;28;20042;-61
2022/11/18 00:55:41;;;;;;;30.88;19.98;;;7.80;99.90;;;;;;5031251;28;20038;-59
2022/11/18 00:58:07;;;;;;;27.15;17.75;;;7.80;99.90;;;;;;5045122;28;20059;-60
2022/11/18 01:00:32;;;;;;;24.50;15.57;;;7.90;99.90;;;;;;5052327;28;20029;-59
2022/11/18 01:02:58;;;;;;;31.98;20.27;;;7.80;99.90;;;;;;5040461;28;20095;-61
2022/11/18 01:05:23;;;;;;;33.13;21.90;;;7.80;99.90;;;;;;5034756;28;20103;-59
2022/11/18 01:07:49;;;;;;;33.28;18.13;;;7.80;99.90;;;;;;5055180;28;20041;-61
2022/11/18 01:10:15;;;;;;;32.03;18.90;;;7.80;99.90;;;;;;5049396;28;20123;-61
2022/11/18 01:15:25;;;;;;;36.00;21.38;;;8.00;99.90;;;;;;5045846;28;20052;-60
2022/11/18 01:17:51;;;;;;;26.15;15.57;;;7.70;99.90;;;;;;5056241;28;20032;-60
2022/11/18 01:20:16;;;;;;;41.42;20.40;;;7.80;99.90;;;;;;5055995;28;20091;-61
2022/11/18 01:22:42;;;;;;;39.45;22.95;;;7.80;99.90;;;;;;5041706;28;20116;-59
2022/11/18 01:25:08;;;;;;;42.63;22.67;;;7.70;99.90;;;;;;5055651;28;20135;-59
2022/11/18 01:27:33;;;;;;;37.83;20.30;;;7.90;99.90;;;;;;5055701;28;20048;-60
2022/11/18 01:29:59;;;;;;;41.55;20.60;;;7.80;99.90;;;;;;5042229;28;20108;-59
2022/11/18 01:32:24;;;;;;;43.17;23.83;;;7.90;99.90;;;;;;5035750;28;20042;-59
2022/11/18 01:34:50;;;;;;;48.63;25.55;;;8.20;99.90;;;;;;5037193;28;20087;-61
2022/11/18 01:37:16;;;;;;;46.50;22.02;;;7.90;99.90;;;;;;5055809;28;20095;-59
2022/11/18 01:39:41;;;;;;;49.65;22.75;;;8.00;99.90;;;;;;5055446;28;20040;-60
2022/11/18 01:42:13;;;;;;;36.97;18.45;;;8.00;99.90;;;;;;5047078;28;20069;-61
2022/11/18 01:45:08;;;;;;;49.63;25.08;;;7.90;99.90;;;;;;5035729;28;20041;-61
2022/11/18 01:47:43;;;;;;;51.63;24.08;;;7.90;99.90;;;;;;5034230;28;20171;-60
2022/11/18 01:50:09;;;;;;;;;;;8.00;99.90;;;;;;5049763;28;20558;-59
2022/11/18 01:52:35;;;;;;;50.60;24.20;;;8.00;99.90;;;;;;5035386;28;19990;-60
2022/11/18 01:55:10;;;;;;;48.13;23.58;;;7.90;99.90;;;;;;5035341;28;20072;-59
2022/11/18 01:57:36;;;;;;;53.42;26.15;;;7.90;99.90;;;;;;5053936;28;20044;-59
2022/11/18 02:00:04;;;;;;;53.40;23.55;;;;;;;;;;5054509;28;20049;-61
2022/11/18 02:02:32;;;;;;;53.72;26.98;;;8.00;99.90;;;;;;5035077;28;20487;-61
2022/11/18 02:04:59;;;;;;;54.47;23.02;;;8.00;99.90;;;;;;5034687;28;20061;-61
2022/11/18 02:07:26;;;;;;;58.38;27.40;;;;;;;;;;5038934;28;20040;-59
2022/11/18 02:09:54;;;;;;;60.20;27.13;;;7.90;99.90;;;;;;5035828;28;20107;-60
2022/11/18 02:12:20;;;;;;;60.75;27.70;;;8.00;99.90;;;;;;5052870;28;20041;-61
2022/11/18 02:14:47;;;;;;;57.78;28.50;;;8.00;99.90;;;;;;5053652;28;20532;-59
2022/11/18 02:17:32;;;;;;;56.97;27.67;;;7.90;99.90;;;;;;5041195;28;20053;-60
2022/11/18 02:20:25;;;;;;;56.35;27.35;;;8.20;99.90;;;;;;5040121;28;20047;-60
2022/11/18 02:22:50;;;;;;;57.95;23.95;;;8.20;99.90;;;;;;5051118;28;20041;-61
2022/11/18 02:25:34;;;;;;;54.60;24.33;;;8.00;99.90;;;;;;5041924;28;20395;-61
2022/11/18 02:28:34;;;;;;;54.70;25.50;;;8.00;99.90;;;;;;5050769;28;20044;-61
2022/11/18 02:31:04;;;;;;;55.05;24.98;;;;;;;;;;5048017;28;20037;-61
2022/11/18 02:33:43;;;;;;;53.42;25.75;;;8.20;99.90;;;;;;5054818;28;20036;-60
2022/11/18 02:36:30;;;;;;;54.50;24.92;;;8.10;99.90;;;;;;5040568;28;20049;-61
2022/11/18 02:39:03;;;;;;;55.40;27.10;;;8.00;99.90;;;;;;5041948;28;20070;-59
2022/11/18 02:41:32;;;;;;;49.05;25.73;;;8.20;99.90;;;;;;5054216;28;20037;-60
2022/11/18 02:44:06;;;;;;;55.38;26.13;;;7.90;99.90;;;;;;5054531;28;20043;-61
2022/11/18 02:46:35;;;;;;;54.40;24.52;;;8.10;99.90;;;;;;5037759;28;20048;-60
2022/11/18 02:49:05;;;;;;;46.38;20.75;;;7.80;99.90;;;;;;5034171;28;20041;-59
2022/11/18 02:51:32;;;;;;;54.63;22.50;;;8.10;99.90;;;;;;5034058;28;20507;-60
2022/11/18 02:54:05;;;;;;;49.17;26.38;;;8.20;99.90;;;;;;5040672;28;20522;-58
2022/11/18 02:56:33;;;;;;;56.88;27.77;;;8.40;99.90;;;;;;5039150;28;20053;-59
2022/11/18 02:58:59;;;;;;;58.95;27.65;;;8.00;99.90;;;;;;5048415;28;20096;-61
2022/11/18 03:01:28;;;;;;;53.67;24.63;;;7.90;99.90;;;;;;5032871;28;20041;-63
2022/11/18 03:03:53;;;;;;;48.67;24.75;;;7.80;99.90;;;;;;5046541;28;20571;-61
2022/11/18 03:06:39;;;;;;;50.60;26.58;;;8.10;99.90;;;;;;5034055;28;20069;-61
2022/11/18 03:09:12;;;;;;;53.17;26.77;;;8.20;99.90;;;;;;5040716;28;20491;-61
2022/11/18 03:12:23;;;;;;;50.20;24.83;;;8.10;99.90;;;;;;5045008;28;20033;-61
2022/11/18 03:15:07;;;;;;;47.58;23.80;;;8.20;99.90;;;;;;5046249;28;20052;-59
2022/11/18 03:17:52;;;;;;;58.47;26.08;;;8.00;99.90;;;;;;5034220;28;20037;-61
2022/11/18 03:20:18;;;;;;;47.33;24.77;;;;;;;;;;5053504;28;20037;-62
2022/11/18 03:22:47;;;;;;;51.30;25.98;;;8.00;99.90;;;;;;5053471;28;20037;-61
2022/11/18 03:25:15;;;;;;;53.63;26.92;;;;;;;;;;5053722;28;20184;-59
2022/11/18 03:27:56;;;;;;;50.55;26.42;;;8.10;99.90;;;;;;5053191;28;20041;-61
2022/11/18 03:30:23;;;;;;;46.38;24.27;;;8.10;99.90;;;;;;5041265;28;20568;-61
2022/11/18 03:32:56;;;;;;;58.47;28.60;;;7.90;99.90;;;;;;5051794;28;20044;-62
2022/11/18 03:35:24;;;;;;;49.83;23.90;;;8.10;99.90;;;;;;5053160;28;20048;-61
2022/11/18 03:37:58;;;;;;;56.28;27.73;;;8.10;99.90;;;;;;5051609;28;20128;-61
2022/11/18 03:40:28;;;;;;;55.42;26.83;;;7.70;99.90;;;;;;5050656;28;20040;-60
2022/11/18 03:43:02;;;;;;;40.67;18.67;;;8.00;99.90;;;;;;5033150;28;20519;-61
2022/11/18 03:45:37;;;;;;;44.13;23.73;;;8.10;99.90;;;;;;5048842;28;20494;-61
2022/11/18 03:48:10;;;;;;;50.35;25.40;;;;;;;;;;5035516;28;20132;-59
2022/11/18 03:50:41;;;;;;;46.30;26.90;;;7.90;99.90;;;;;;5042672;28;20043;-59
2022/11/18 03:53:07;;;;;;;44.15;22.75;;;8.10;99.90;;;;;;5038988;28;20045;-60
2022/11/18 03:55:38;;;;;;;44.10;22.35;;;7.90;99.90;;;;;;5044673;28;20041;-61
2022/11/18 03:58:25;;;;;;;50.67;26.92;;;7.70;99.90;;;;;;5032877;28;20072;-61
2022/11/18 04:01:00;;;;;;;47.63;23.02;;;8.00;99.90;;;;;;5041794;28;20048;-61
2022/11/18 04:03:26;;;;;;;51.08;23.92;;;7.90;99.90;;;;;;5053069;28;20055;-61
2022/11/18 04:05:56;;;;;;;49.20;24.10;;;;;;;;;;5042375;28;20183;-62
2022/11/18 04:08:31;;;;;;;43.33;21.55;;;8.10;99.90;;;;;;5037704;28;20495;-61
2022/11/18 04:11:02;;;;;;;48.75;26.10;;;8.00;99.90;;;;;;5053056;28;20063;-60
2022/11/18 04:13:32;;;;;;;53.17;27.50;;;8.10;99.90;;;;;;5047304;28;20128;-61
2022/11/18 04:15:58;;;;;;;41.15;20.85;;;;;;;;;;5033023;28;20049;-59
2022/11/18 04:18:23;;;;;;;50.88;24.75;;;8.00;99.90;;;;;;5045189;28;20047;-61
2022/11/18 04:20:49;;;;;;;51.50;27.58;;;;;;;;;;5052576;28;20044;-61
2022/11/18 04:23:15;;;;;;;51.50;26.13;;;7.90;99.90;;;;;;5040061;28;20053;-61
2022/11/18 04:25:40;;;;;;;49.65;27.08;;;7.80;99.90;;;;;;5050411;28;20044;-61
2022/11/18 04:28:06;;;;;;;45.22;25.10;;;7.80;99.90;;;;;;5051388;28;20388;-61
2022/11/18 04:30:32;;;;;;;47.90;25.10;;;8.00;99.90;;;;;;5049716;28;20127;-60
2022/11/18 04:32:58;;;;;;;44.40;21.30;;;8.10;99.90;;;;;;5040566;28;20041;-61
2022/11/18 04:35:24;;;;;;;45.03;21.85;;;7.90;99.90;;;;;;5051191;28;20077;-61
2022/11/18 04:37:49;;;;;;;44.80;23.02;;;8.00;99.90;;;;;;5038617;28;20103;-59
2022/11/18 04:40:16;;;;;;;51.42;24.73;;;;;;;;;;5054328;28;20037;-63
2022/11/18 04:42:41;;;;;;;46.38;23.05;;;7.90;99.90;;;;;;5038841;28;20042;-61
2022/11/18 04:45:08;;;;;;;47.42;25.55;;;7.90;99.90;;;;;;5037786;28;20046;-60
2022/11/18 04:47:33;;;;;;;47.55;23.85;;;8.00;99.90;;;;;;5050460;28;20037;-61
2022/11/18 04:49:59;;;;;;;47.00;25.63;;;7.90;99.90;;;;;;5036521;28;20064;-61
2022/11/18 04:52:24;;;;;;;44.90;25.08;;;7.90;99.90;;;;;;5049043;28;20037;-61
2022/11/18 04:54:50;;;;;;;63.55;27.92;;;;;;;;;;5056184;28;20079;-64
2022/11/18 04:57:16;;;;;;;45.85;22.92;;;7.90;99.90;;;;;;5045928;28;20049;-61
2022/11/18 04:59:41;;;;;;;45.40;22.65;;;8.00;99.90;;;;;;5053168;28;20029;-61
2022/11/18 05:02:07;;;;;;;47.10;24.15;;;8.00;99.90;;;;;;5054965;28;20048;-61
2022/11/18 05:04:33;;;;;;;50.22;27.45;;;7.90;99.90;;;;;;5055201;28;20049;-61
2022/11/18 05:07:00;;;;;;;49.00;26.52;;;7.90;99.90;;;;;;5042771;28;20072;-61
2022/11/18 05:09:27;;;;;;;53.00;25.30;;;7.80;99.90;;;;;;5056002;28;20040;-61
2022/11/18 05:14:37;;;;;;;40.93;22.00;;;7.90;99.90;;;;;;5054621;28;20049;-62
2022/11/18 05:17:05;;;;;;;48.05;25.92;;;7.90;99.90;;;;;;5041907;28;20037;-60
2022/11/18 05:19:31;;;;;;;51.35;27.35;;;7.90;99.90;;;;;;5043866;28;20056;-61
2022/11/18 05:21:57;;;;;;;41.35;21.48;;;8.00;99.90;;;;;;5044230;28;20033;-61
2022/11/18 05:24:23;;;;;;;42.38;23.38;;;7.90;99.90;;;;;;5045820;28;20118;-61
2022/11/18 05:26:49;;;;;;;52.28;25.33;;;8.00;99.90;;;;;;5053674;28;20117;-61
2022/11/18 05:29:17;;;;;;;45.28;21.70;;;7.60;99.90;;;;;;5043821;28;20116;-61
2022/11/18 05:31:44;;;;;;;45.47;23.45;;;7.90;99.90;;;;;;5055219;28;20044;-61
2022/11/18 05:34:09;;;;;;;47.33;26.50;;;7.80;99.90;;;;;;5040731;28;20037;-61
2022/11/18 05:36:35;;;;;;;46.78;23.60;;;7.80;99.90;;;;;;5054170;28;20384;-61
2022/11/18 05:39:00;;;;;;;49.25;25.08;;;7.80;99.90;;;;;;5051238;28;20064;-59
2022/11/18 05:44:10;;;;;;;51.40;26.17;;;7.90;99.90;;;;;;5053460;28;20503;-60
2022/11/18 05:46:35;;;;;;;48.22;25.05;;;7.80;99.90;;;;;;5042441;28;20068;-61
2022/11/18 05:49:01;;;;;;;39.25;21.02;;;7.80;99.90;;;;;;5055289;28;20510;-61
2022/11/18 05:51:27;;;;;;;41.70;23.30;;;7.80;99.90;;;;;;5052212;28;20032;-61
2022/11/18 05:53:54;;;;;;;46.00;23.70;;;7.70;99.90;;;;;;5043506;28;20045;-60
2022/11/18 05:56:26;;;;;;;46.47;23.10;;;7.70;99.90;;;;;;5052045;28;20048;-61
2022/11/18 05:58:52;;;;;;;54.83;25.30;;;;;;;;;;5044664;28;20068;-62
2022/11/18 06:01:30;;;;;;;46.22;23.95;;;;;;;;;;5054964;28;20041;-61
2022/11/18 06:03:56;;;;;;;40.53;22.50;;;7.70;99.90;;;;;;5055142;28;20048;-61
2022/11/18 06:06:24;;;;;;;45.97;25.27;;;7.70;99.90;;;;;;5041129;28;20084;-61
2022/11/18 06:09:02;;;;;;;56.63;25.55;;;7.70;99.90;;;;;;5052375;28;20049;-61
2022/11/18 06:11:31;;;;;;;48.10;25.30;;;7.60;99.90;;;;;;5053678;28;20056;-61
2022/11/18 06:14:05;;;;;;;46.13;21.75;;;7.70;99.90;;;;;;5055025;28;20072;-61
2022/11/18 06:16:33;;;;;;;47.58;23.60;;;7.70;99.90;;;;;;5054904;28;20041;-61
2022/11/18 06:19:00;;;;;;;44.67;22.80;;;7.70;99.90;;;;;;5054893;28;20037;-61
2022/11/18 06:21:26;;;;;;;48.10;23.58;;;7.70;99.90;;;;;;5041362;28;20059;-61
2022/11/18 06:23:52;;;;;;;43.47;22.50;;;7.70;99.90;;;;;;5039300;28;20045;-60
2022/11/18 06:26:18;;;;;;;40.67;19.42;;;;;;;;;;5054489;28;20525;-62
2022/11/18 06:28:46;;;;;;;51.70;25.35;;;;;;;;;;5040646;28;20051;-61
2022/11/18 06:31:11;;;;;;;47.20;25.17;;;7.60;99.90;;;;;;5045419;28;20112;-61
2022/11/18 06:33:37;;;;;;;45.63;22.92;;;7.60;99.90;;;;;;5054682;28;20159;-59
2022/11/18 06:36:02;;;;;;;41.85;21.50;;;7.60;99.90;;;;;;5053143;28;20088;-61
2022/11/18 06:38:28;;;;;;;44.08;20.02;;;7.60;99.90;;;;;;5054704;28;20044;-59
2022/11/18 06:40:58;;;;;;;52.38;25.17;;;;;;;;;;5033180;28;20038;-61
2022/11/18 06:43:40;;;;;;;38.63;20.65;;;7.70;99.90;;;;;;5034349;28;20041;-61
2022/11/18 06:48:52;;;;;;;41.15;22.17;;;7.60;99.90;;;;;;5033149;28;20079;-60
2022/11/18 06:51:18;;;;;;;50.17;23.70;;;7.60;99.90;;;;;;5037643;28;20037;-62
2022/11/18 06:53:43;;;;;;;46.65;22.95;;;7.80;99.90;;;;;;5053957;28;20041;-59
2022/11/18 06:56:12;;;;;;;49.00;23.48;;;7.60;99.90;;;;;;5054092;28;20037;-61
2022/11/18 06:58:38;;;;;;;42.35;22.98;;;7.60;99.90;;;;;;5052901;28;20033;-61
2022/11/18 07:01:34;;;;;;;36.75;19.45;;;7.60;99.90;;;;;;5040072;28;20122;-60
2022/11/18 07:04:00;;;;;;;42.92;22.85;;;;;;;;;;5034212;28;20056;-61
2022/11/18 07:06:29;;;;;;;34.00;16.40;;;7.60;99.90;;;;;;5052445;28;20138;-61
2022/11/18 07:08:55;;;;;;;42.95;21.60;;;7.50;99.90;;;;;;5053362;28;20415;-59
2022/11/18 07:11:23;;;;;;;43.63;24.13;;;7.60;99.90;;;;;;5053628;28;20048;-62
2022/11/18 07:13:49;;;;;;;49.88;22.92;;;7.60;99.90;;;;;;5052747;28;20549;-61
2022/11/18 07:16:17;;;;;;;48.88;22.52;;;7.60;99.90;;;;;;5043860;28;20041;-61
2022/11/18 07:18:44;;;;;;;46.95;23.75;;;7.60;99.90;;;;;;5045043;28;20041;-60
2022/11/18 07:21:12;;;;;;;46.17;21.88;;;7.70;99.90;;;;;;5032272;28;20065;-61
2022/11/18 07:23:38;;;;;;;41.90;21.35;;;7.50;99.90;;;;;;5033318;28;20399;-60
2022/11/18 07:26:05;;;;;;;50.63;22.80;;;7.50;99.90;;;;;;5031997;28;20458;-61
2022/11/18 07:28:31;;;;;;;46.85;22.80;;;7.60;99.90;;;;;;5031938;28;20044;-61
2022/11/18 07:31:01;;;;;;;44.55;20.15;;;;;;;;;;5041167;28;20463;-59
2022/11/18 07:33:26;;;;;;;45.72;23.52;;;7.60;99.90;;;;;;5040442;28;20053;-61
2022/11/18 07:35:52;;;;;;;38.33;17.20;;;7.50;99.90;;;;;;5043409;28;20094;-61
2022/11/18 07:38:17;;;;;;;40.25;20.58;;;7.60;99.90;;;;;;5038840;28;20041;-61
2022/11/18 07:40:43;;;;;;;38.05;18.40;;;7.50;99.90;;;;;;5033234;28;20128;-61
2022/11/18 07:43:08;;;;;;;34.45;18.10;;;7.50;99.90;;;;;;5033088;28;20060;-61
2022/11/18 07:45:34;;;;;;;32.40;17.50;;;7.50;99.90;;;;;;5033044;28;20076;-61
2022/11/18 07:48:00;;;;;;;33.53;17.77;;;7.50;99.90;;;;;;5037425;28;20079;-61
2022/11/18 07:50:26;;;;;;;24.88;13.65;;;7.40;99.90;;;;;;5043716;28;20455;-62
2022/11/18 07:52:54;;;;;;;33.53;17.05;;;7.40;99.90;;;;;;5039064;28;20068;-61
2022/11/18 07:55:20;;;;;;;25.77;13.57;;;;;;;;;;5039734;28;20046;-63
2022/11/18 07:57:46;;;;;;;28.00;13.70;;;7.50;99.90;;;;;;5030833;28;20046;-62
2022/11/18 08:00:12;;;;;;;27.27;13.43;;;7.50;99.90;;;;;;5037916;28;20037;-60
2022/11/18 08:02:37;;;;;;;27.05;14.18;;;7.50;99.90;;;;;;5037954;28;20102;-61
2022/11/18 08:05:03;;;;;;;25.48;13.98;;;7.50;99.90;;;;;;5037713;28;20048;-61
2022/11/18 08:07:29;;;;;;;26.60;13.65;;;7.60;99.90;;;;;;5037276;28;20129;-62
2022/11/18 08:09:54;;;;;;;25.48;12.50;;;7.60;99.90;;;;;;5032701;28;20041;-62
2022/11/18 08:12:20;;;;;;;24.30;12.70;;;7.50;99.90;;;;;;5038520;28;20032;-62
2022/11/18 08:14:45;;;;;;;21.63;10.45;;;7.60;99.90;;;;;;5036863;28;20191;-62
2022/11/18 08:17:11;;;;;;;29.33;14.55;;;7.50;99.90;;;;;;5032358;28;20448;-62
2022/11/18 08:19:36;;;;;;;32.00;14.52;;;7.40;99.90;;;;;;5040644;28;20032;-62
2022/11/18 08:22:02;;;;;;;25.63;13.50;;;7.50;99.90;;;;;;5032951;28;20045;-61
2022/11/18 08:24:28;;;;;;;26.40;15.07;;;;;;;;;;5031562;28;20038;-63
2022/11/18 08:26:53;;;;;;;29.60;14.02;;;7.60;99.90;;;;;;5043518;28;20041;-63
2022/11/18 08:29:19;;;;;;;28.25;14.90;;;7.50;99.90;;;;;;5037302;28;20050;-63
2022/11/18 08:31:45;;;;;;;30.80;16.48;;;;;;;;;;5032130;28;20502;-63
2022/11/18 08:34:11;;;;;;;24.92;12.88;;;7.40;99.90;;;;;;5014958;28;20454;-62
2022/11/18 08:36:37;;;;;;;28.60;13.68;;;;;;;;;;5032266;28;20037;-62
2022/11/18 08:39:06;;;;;;;28.92;15.63;;;7.60;99.90;;;;;;5032633;28;20044;-62
2022/11/18 08:41:34;;;;;;;22.10;10.75;;;7.70;99.90;;;;;;5032728;28;20037;-62
2022/11/18 08:44:01;;;;;;;29.15;14.40;;;;;;;;;;5032144;28;20069;-62
2022/11/18 08:46:27;;;;;;;27.67;13.38;;;7.40;99.90;;;;;;5037319;28;20077;-63
2022/11/18 08:48:53;;;;;;;30.08;14.65;;;7.40;99.90;;;;;;5032572;28;20041;-61
2022/11/18 08:51:18;;;;;;;22.58;12.35;;;7.40;99.90;;;;;;5032472;28;20544;-62
2022/11/18 08:53:44;;;;;;;23.90;11.80;;;7.50;99.90;;;;;;5032692;28;20556;-60
2022/11/18 08:56:14;;;;;;;23.40;11.32;;;7.50;99.90;;;;;;5032194;28;20076;-63
2022/11/18 08:58:40;;;;;;;29.80;14.18;;;7.50;99.90;;;;;;5031447;28;20090;-62
2022/11/18 09:01:07;;;;;;;24.35;13.02;;;7.50;99.90;;;;;;5032033;28;20049;-63
2022/11/18 09:03:33;;;;;;;26.45;13.45;;;7.50;99.90;;;;;;5032996;28;20045;-62
2022/11/18 09:06:19;;;;;;;28.73;14.18;;;7.50;99.90;;;;;;5032603;28;20057;-62
2022/11/18 09:08:46;;;;;;;25.55;12.23;;;7.40;99.90;;;;;;5032643;28;20056;-61
2022/11/18 09:11:16;;;;;;;28.73;14.18;;;;;;;;;;5030987;28;20053;-63
2022/11/18 09:13:42;;;;;;;28.50;14.23;;;7.50;99.90;;;;;;5032400;28;20033;-62
2022/11/18 09:16:08;;;;;;;24.75;13.70;;;7.50;99.90;;;;;;5032350;28;20506;-62
2022/11/18 09:18:35;;;;;;;28.52;15.52;;;7.50;99.90;;;;;;5032225;28;20041;-62
2022/11/18 09:21:03;;;;;;;30.90;16.30;;;7.50;99.90;;;;;;5032098;28;20029;-63
2022/11/18 09:23:30;;;;;;;35.53;15.13;;;;;;;;;;5032080;28;20033;-61
2022/11/18 09:26:05;;;;;;;32.08;15.45;;;7.50;99.90;;;;;;5031945;28;20116;-62
2022/11/18 09:28:30;;;;;;;18.33;10.10;;;7.50;99.90;;;;;;5035633;28;20403;-61
2022/11/18 09:30:56;;;;;;;27.45;13.52;;;7.50;99.90;;;;;;5034561;28;20055;-62
2022/11/18 09:33:22;;;;;;;25.02;14.05;;;7.40;99.90;;;;;;5035902;28;20041;-62
2022/11/18 09:35:48;;;;;;;24.58;12.63;;;7.50;99.90;;;;;;5037511;28;20081;-61
2022/11/18 09:38:13;;;;;;;25.17;11.70;;;7.30;99.90;;;;;;5044001;28;20076;-60
2022/11/18 09:40:45;;;;;;;24.45;12.98;;;7.40;99.90;;;;;;5037594;28;20037;-62
2022/11/18 09:43:20;;;;;;;24.27;12.43;;;7.70;99.90;;;;;;5034312;28;20073;-60
2022/11/18 09:45:49;;;;;;;25.65;13.23;;;;;;;;;;5034052;28;20128;-60
2022/11/18 09:48:19;;;;;;;23.98;12.75;;;;;;;;;;5034764;28;20459;-62
2022/11/18 09:50:45;;;;;;;22.13;10.43;;;;;;;;;;5040177;28;20395;-61
2022/11/18 09:53:23;;;;;;;19.25;9.98;;;7.30;99.90;;;;;;5034746;28;20503;-61
2022/11/18 09:55:50;;;;;;;27.05;12.40;;;7.40;99.90;;;;;;5034927;28;20411;-61
2022/11/18 09:58:24;;;;;;;21.65;12.35;;;7.30;99.90;;;;;;5034946;28;20456;-59
2022/11/18 10:00:50;;;;;;;23.38;11.50;;;7.40;99.90;;;;;;5035362;28;20128;-61
2022/11/18 10:03:25;;;;;;;24.42;12.38;;;7.40;99.90;;;;;;5034802;28;20487;-62
2022/11/18 10:06:12;;;;;;;23.35;12.02;;;7.50;99.90;;;;;;5034839;28;20061;-60
2022/11/18 10:08:46;;;;;;;20.92;11.75;;;7.40;99.90;;;;;;5035411;28;20129;-59
2022/11/18 10:11:26;;;;;;;24.15;13.25;;;;;;;;;;5033910;28;20083;-59
2022/11/18 10:14:03;;;;;;;21.10;9.93;;;7.40;99.90;;;;;;5033467;28;20042;-59
2022/11/18 10:16:42;;;;;;;20.30;11.48;;;7.60;99.90;;;;;;5034578;28;20077;-61
2022/11/18 10:19:25;;;;;;;23.33;12.23;;;7.50;99.90;;;;;;5033804;28;20049;-61
2022/11/18 10:22:25;;;;;;;18.92;10.05;;;7.70;99.90;;;;;;5033285;28;20045;-62
2022/11/18 10:24:53;;;;;;;13.70;8.43;;;;;;;;;;5034600;28;20060;-61
2022/11/18 10:27:19;;;;;;;20.52;10.90;;;7.50;99.90;;;;;;5034745;28;20029;-61
2022/11/18 10:29:52;;;;;;;20.67;10.88;;;7.50;99.90;;;;;;5034759;28;20029;-61
2022/11/18 10:32:18;;;;;;;20.17;12.27;;;7.50;99.90;;;;;;5033182;28;20095;-61
2022/11/18 10:35:22;;;;;;;22.05;12.73;;;7.50;99.90;;;;;;5034480;28;20088;-59
2022/11/18 10:38:13;;;;;;;19.65;9.95;;;7.40;99.90;;;;;;5040146;28;20041;-59
2022/11/18 10:40:51;;;;;;;16.13;9.55;;;7.60;99.90;;;;;;5035115;28;20144;-59
2022/11/18 10:43:53;;;;;;;20.48;10.98;;;7.50;99.90;;;;;;5034404;28;20069;-61
2022/11/18 10:46:26;;;;;;;22.98;13.02;;;7.40;99.90;;;;;;5015232;28;20045;-61
2022/11/18 10:49:09;;;;;;;25.52;13.55;;;7.30;99.90;;;;;;5051027;28;20060;-59
2022/11/18 10:51:41;;;;;;;25.20;13.30;;;7.40;99.90;;;;;;5046946;28;20049;-59
2022/11/18 10:54:07;;;;;;;22.08;12.05;;;7.30;99.90;;;;;;5034292;28;20042;-60
2022/11/18 10:56:49;;;;;;;21.85;11.23;;;7.40;99.90;;;;;;5046576;28;20530;-61
2022/11/18 10:59:30;;;;;;;22.30;11.23;;;7.40;99.90;;;;;;5046997;28;20067;-61
2022/11/18 11:02:11;;;;;;;24.20;13.02;;;;;;;;;;5040040;28;20045;-61
2022/11/18 11:04:38;;;;;;;17.27;10.63;;;;;;;;;;5038278;28;20072;-61
2022/11/18 11:07:24;;;;;;;19.15;11.50;;;7.40;99.90;;;;;;5053755;28;20052;-61
2022/11/18 11:10:05;;;;;;;21.67;12.45;;;7.20;99.90;;;;;;5051641;28;20057;-61
2022/11/18 11:12:37;;;;;;;20.02;11.85;;;7.30;99.90;;;;;;5052791;28;20480;-59
2022/11/18 11:15:07;;;;;;;12.07;6.68;;;7.20;99.90;;;;;;5053336;28;20480;-64
2022/11/18 11:17:37;;;;;;;17.08;6.80;;;7.40;99.90;;;;;;5052417;28;20045;-61
2022/11/18 11:20:16;;;;;;;19.67;9.52;;;7.20;99.90;;;;;;5053567;28;20052;-61
2022/11/18 11:22:43;;;;;;;16.55;8.50;;;7.30;99.90;;;;;;5043707;28;20033;-61
2022/11/18 11:25:29;;;;;;;15.15;8.88;;;7.50;99.90;;;;;;5048527;28;20120;-61
2022/11/18 11:28:11;;;;;;;17.77;9.80;;;7.40;99.90;;;;;;5052490;28;20049;-60
2022/11/18 11:30:40;;;;;;;17.52;10.13;;;;;;;;;;5053596;28;20119;-61
2022/11/18 11:33:16;;;;;;;18.63;10.25;;;;;;;;;;5053546;28;20036;-61
2022/11/18 11:35:47;;;;;;;19.08;10.30;;;;;;;;;;5053047;28;20552;-61
2022/11/18 11:38:31;;;;;;;19.67;11.90;;;7.00;99.90;;;;;;5051793;28;20402;-59
2022/11/18 11:41:06;;;;;;;18.20;9.75;;;;;;;;;;5053092;28;20040;-61
2022/11/18 11:43:38;;;;;;;20.10;10.82;;;;;;;;;;5053054;28;20075;-61
2022/11/18 11:46:23;;;;;;;17.27;9.00;;;7.50;99.90;;;;;;5052798;28;20065;-62
2022/11/18 11:49:16;;;;;;;14.98;7.35;;;7.40;99.90;;;;;;5053121;28;20095;-59
2022/11/18 11:51:52;;;;;;;22.05;11.07;;;7.10;99.90;;;;;;5052953;28;20051;-61
2022/11/18 11:54:37;;;;;;;17.15;9.38;;;7.10;99.90;;;;;;5052996;28;20044;-62
2022/11/18 11:57:04;;;;;;;19.67;11.18;;;;;;;;;;5051396;28;20040;-61
2022/11/18 11:59:59;;;;;;;20.15;11.50;;;7.60;99.90;;;;;;5052781;28;20037;-59
2022/11/18 12:02:45;;;;;;;18.27;8.55;;;7.40;99.90;;;;;;5052554;28;20039;-61
2022/11/18 12:05:21;;;;;;;20.90;11.88;;;7.00;99.90;;;;;;5037009;28;20049;-61
2022/11/18 12:07:58;;;;;;;14.13;8.10;;;7.30;99.90;;;;;;5038788;28;20427;-62
2022/11/18 12:10:27;;;;;;;16.77;10.18;;;7.30;99.90;;;;;;5044926;28;20372;-61
2022/11/18 12:13:31;;;;;;;20.13;11.30;;;7.10;99.90;;;;;;5051473;28;20056;-61
2022/11/18 12:16:00;;;;;;;14.90;7.18;;;;;;;;;;5051278;28;20065;-60
2022/11/18 12:18:26;;;;;;;17.60;11.10;;;7.10;99.90;;;;;;5034961;28;20060;-61
2022/11/18 12:20:52;;;;;;;19.63;10.80;;;7.00;99.90;;;;;;5051760;28;20499;-61
2022/11/18 12:23:19;;;;;;;17.83;11.15;;;6.90;99.90;;;;;;5038575;28;20111;-62
2022/11/18 12:26:02;;;;;;;11.88;7.97;;;7.00;99.90;;;;;;5032741;28;20514;-60
2022/11/18 12:28:42;;;;;;;13.23;8.55;;;6.90;99.90;;;;;;5032512;28;20042;-62
2022/11/18 12:31:32;;;;;;;13.73;8.55;;;7.20;99.90;;;;;;5032750;28;20040;-61
2022/11/18 12:33:59;;;;;;;16.48;9.68;;;7.10;99.90;;;;;;5029859;28;20130;-59
2022/11/18 12:36:38;;;;;;;14.15;8.25;;;7.20;99.90;;;;;;5032044;28;20522;-61
2022/11/18 12:39:30;;;;;;;13.88;9.07;;;7.00;99.90;;;;;;5031439;28;20042;-59
2022/11/18 12:44:46;;;;;;;11.80;5.90;;;;;;;;;;5031159;28;20045;-60
2022/11/18 12:47:15;;;;;;;12.93;7.88;;;6.70;99.90;;;;;;5044474;28;20064;-59
2022/11/18 12:49:44;;;;;;;12.52;6.80;;;6.70;99.90;;;;;;5032887;28;20046;-60
2022/11/18 12:52:28;;;;;;;9.40;5.53;;;6.90;99.90;;;;;;5042285;28;20033;-61
2022/11/18 12:54:55;;;;;;;9.93;5.22;;;6.90;99.90;;;;;;5037170;28;20503;-59
2022/11/18 12:57:22;;;;;;;9.23;5.95;;;7.00;99.90;;;;;;5052435;28;20398;-61
2022/11/18 12:59:48;;;;;;;12.73;7.18;;;6.90;99.90;;;;;;5049078;28;20049;-61
2022/11/18 13:02:29;;;;;;;11.73;6.47;;;6.80;99.90;;;;;;5035399;28;20034;-61
2022/11/18 13:05:29;;;;;;;12.02;5.45;;;6.90;99.90;;;;;;5041266;28;20077;-62
2022/11/18 13:08:13;;;;;;;9.30;5.75;;;6.90;99.90;;;;;;5037004;28;20514;-62
2022/11/18 13:10:51;;;;;;;13.68;8.13;;;6.70;99.90;;;;;;5035029;28;20037;-62
2022/11/18 13:13:32;;;;;;;10.82;6.88;;;6.60;99.90;;;;;;5035930;28;20057;-62
2022/11/18 13:19:02;;;;;;;18.15;9.32;;;6.50;99.90;;;;;;5040526;28;20529;-62
2022/11/18 13:24:15;;;;;;;17.40;9.20;;;6.50;99.90;;;;;;5042185;28;20045;-63
2022/11/18 13:26:43;;;;;;;11.25;5.00;;;6.60;99.90;;;;;;5053294;28;20037;-63
2022/11/18 13:29:37;;;;;;;17.55;9.32;;;6.60;99.90;;;;;;5051674;28;20479;-64
2022/11/18 13:32:03;;;;;;;15.13;8.18;;;6.40;99.90;;;;;;5038169;28;20136;-64